createdAt,value
2023-04-23T00:01:12.768Z,13
2023-04-23T00:02:14.437Z,11.19999981
2023-04-23T00:03:16.398Z,11.39999962
2023-04-23T00:04:18.477Z,15.60000038
2023-04-23T00:05:19.356Z,9.699999809
2023-04-23T00:06:21.288Z,10
2023-04-23T00:07:22.317Z,9.399999619
2023-04-23T00:08:23.742Z,11.19999981
2023-04-23T00:09:25.300Z,9.699999809
2023-04-23T00:10:26.354Z,10.10000038
2023-04-23T00:11:28.390Z,9.800000191
2023-04-23T00:12:30.276Z,9.5
2023-04-23T00:13:31.832Z,9.399999619
2023-04-23T00:14:32.930Z,10.89999962
2023-04-23T00:15:33.915Z,10.10000038
2023-04-23T00:16:34.936Z,12
2023-04-23T00:17:36.797Z,9.899999619
2023-04-23T00:18:37.526Z,11.10000038
2023-04-23T00:19:38.478Z,11.30000019
2023-04-23T00:20:39.485Z,10.5
2023-04-23T00:22:11.791Z,10.30000019
2023-04-23T00:23:12.626Z,12.5
2023-04-23T00:24:14.277Z,11.80000019
2023-04-23T00:25:15.415Z,10.69999981
2023-04-23T00:26:16.472Z,12.5
2023-04-23T00:27:18.305Z,13
2023-04-23T00:28:22.215Z,14.30000019
2023-04-23T00:29:21.833Z,12.60000038
2023-04-23T00:30:22.936Z,12.19999981
2023-04-23T00:31:24.132Z,13.89999962
2023-04-23T00:32:25.788Z,15
2023-04-23T00:33:27.221Z,12.30000019
2023-04-23T00:34:28.098Z,12.69999981
2023-04-23T00:35:29.752Z,13.19999981
2023-04-23T00:36:30.672Z,15.30000019
2023-04-23T00:37:32.160Z,15.19999981
2023-04-23T00:38:33.711Z,13.69999981
2023-04-23T00:39:34.635Z,13.10000038
2023-04-23T00:40:36.520Z,14.30000019
2023-04-23T00:41:38.254Z,11.80000019
2023-04-23T00:43:10.690Z,12.89999962
2023-04-23T00:44:12.294Z,15.30000019
2023-04-23T00:45:13.638Z,14.30000019
2023-04-23T00:46:14.748Z,12
2023-04-23T00:47:16.540Z,13.19999981
2023-04-23T00:48:17.279Z,13.60000038
2023-04-23T00:49:18.520Z,12.39999962
2023-04-23T00:50:19.487Z,12.80000019
2023-04-23T00:51:21.367Z,13.39999962
2023-04-23T00:52:23.550Z,12.5
2023-04-23T00:53:24.793Z,11.69999981
2023-04-23T00:54:26.306Z,11.19999981
2023-04-23T00:55:28.006Z,14.80000019
2023-04-23T00:56:29.014Z,13.10000038
2023-04-23T00:57:30.728Z,12.5
2023-04-23T00:58:31.741Z,12.19999981
2023-04-23T00:59:32.789Z,12.19999981
2023-04-23T01:00:34.844Z,14.10000038
2023-04-23T01:01:36.965Z,11.10000038
2023-04-23T01:02:39.027Z,10.5
2023-04-23T01:04:10.970Z,13.69999981
2023-04-23T01:05:11.826Z,11.69999981
2023-04-23T01:06:13.045Z,10.69999981
2023-04-23T01:07:15.337Z,11.39999962
2023-04-23T01:08:16.509Z,14.89999962
2023-04-23T01:09:18.403Z,12.5
2023-04-23T01:10:20.331Z,11.30000019
2023-04-23T01:11:21.321Z,13
2023-04-23T01:12:23.240Z,14.10000038
2023-04-23T01:13:24.377Z,13.60000038
2023-04-23T01:14:26.357Z,17.39999962
2023-04-23T01:15:27.488Z,13.19999981
2023-04-23T01:16:28.508Z,11.19999981
2023-04-23T01:17:30.297Z,12.10000038
2023-04-23T01:18:31.196Z,10.69999981
2023-04-23T01:19:32.730Z,11.69999981
2023-04-23T01:20:34.486Z,10.30000019
2023-04-23T01:21:35.509Z,10.80000019
2023-04-23T01:22:37.314Z,13.89999962
2023-04-23T01:23:38.247Z,10.89999962
2023-04-23T01:25:10.339Z,9.800000191
2023-04-23T01:26:11.374Z,11.5
2023-04-23T01:27:13.641Z,12.89999962
2023-04-23T01:28:14.559Z,11.10000038
2023-04-23T01:29:15.455Z,10.69999981
2023-04-23T01:30:16.509Z,13.5
2023-04-23T01:31:18.366Z,9.600000381
2023-04-23T01:32:19.502Z,11.39999962
2023-04-23T01:33:21.221Z,11.69999981
2023-04-23T01:34:22.766Z,10.19999981
2023-04-23T01:35:23.855Z,11.19999981
2023-04-23T01:36:25.816Z,10.89999962
2023-04-23T01:37:27.886Z,11.19999981
2023-04-23T01:38:28.757Z,11.80000019
2023-04-23T01:39:30.293Z,10.19999981
2023-04-23T01:40:31.279Z,10.10000038
2023-04-23T01:41:32.811Z,12.19999981
2023-04-23T01:42:33.771Z,12.60000038
2023-04-23T01:43:34.728Z,10.69999981
2023-04-23T01:44:36.297Z,9.699999809
2023-04-23T01:45:37.375Z,9.699999809
2023-04-23T01:46:38.456Z,11.89999962
2023-04-23T01:48:10.651Z,10.39999962
2023-04-23T01:49:11.582Z,10.19999981
2023-04-23T01:50:12.654Z,12.39999962
2023-04-23T01:51:43.839Z,9.600000381
2023-04-23T01:53:16.324Z,9.5
2023-04-23T01:54:17.766Z,10
2023-04-23T01:55:18.730Z,10.5
2023-04-23T01:56:20.420Z,8.899999619
2023-04-23T01:57:22.420Z,11.10000038
2023-04-23T01:58:23.246Z,8.300000191
2023-04-23T01:59:24.264Z,9
2023-04-23T02:00:25.180Z,7.199999809
2023-04-23T02:01:26.809Z,9.300000191
2023-04-23T02:02:28.405Z,6
2023-04-23T02:03:29.347Z,5
2023-04-23T02:04:30.903Z,9.300000191
2023-04-23T02:05:32.847Z,6
2023-04-23T02:06:33.854Z,6
2023-04-23T02:07:35.790Z,5.400000095
2023-04-23T02:08:36.743Z,4.699999809
2023-04-23T02:09:38.704Z,6.900000095
2023-04-23T02:11:11.373Z,4.099999905
2023-04-23T02:12:12.726Z,7.300000191
2023-04-23T02:13:13.774Z,7.400000095
2023-04-23T02:14:15.219Z,5.099999905
2023-04-23T02:15:16.208Z,5.300000191
2023-04-23T02:16:17.187Z,4
2023-04-23T02:17:18.762Z,3.5
2023-04-23T02:18:19.706Z,3.400000095
2023-04-23T02:19:20.783Z,5.300000191
2023-04-23T02:20:21.857Z,4
2023-04-23T02:21:22.874Z,6.800000191
2023-04-23T02:22:24.801Z,5.5
2023-04-23T02:23:25.635Z,3.299999952
2023-04-23T02:24:27.347Z,2.799999952
2023-04-23T02:25:28.427Z,2.900000095
2023-04-23T02:26:29.391Z,5.800000191
2023-04-23T02:27:31.194Z,3.400000095
2023-04-23T02:28:32.146Z,5.800000191
2023-04-23T02:29:32.959Z,5.900000095
2023-04-23T02:30:33.965Z,4.800000191
2023-04-23T02:31:35.167Z,3.900000095
2023-04-23T02:32:36.930Z,5.900000095
2023-04-23T02:33:37.870Z,4.300000191
2023-04-23T02:35:10.804Z,2.599999905
2023-04-23T02:36:11.961Z,3.200000048
2023-04-23T02:37:13.816Z,4.400000095
2023-04-23T02:38:14.848Z,3.799999952
2023-04-23T02:39:15.765Z,3.599999905
2023-04-23T02:40:17.262Z,2.900000095
2023-04-23T02:41:18.111Z,2.599999905
2023-04-23T02:42:19.765Z,3.400000095
2023-04-23T02:43:20.692Z,6.400000095
2023-04-23T02:44:22.295Z,4.5
2023-04-23T02:45:23.281Z,3.200000048
2023-04-23T02:46:25.263Z,4.300000191
2023-04-23T02:47:26.837Z,4.099999905
2023-04-23T02:48:27.815Z,4.300000191
2023-04-23T02:49:28.848Z,6.099999905
2023-04-23T02:50:29.796Z,4.900000095
2023-04-23T02:51:30.722Z,4.199999809
2023-04-23T02:52:32.237Z,3
2023-04-23T02:53:33.150Z,4.199999809
2023-04-23T02:54:35.104Z,2.799999952
2023-04-23T02:55:36.126Z,3.799999952
2023-04-23T02:56:37.064Z,3.299999952
2023-04-23T02:58:09.760Z,3
2023-04-23T02:59:11.233Z,5.099999905
2023-04-23T03:00:12.151Z,6.300000191
2023-04-23T03:01:13.509Z,4.300000191
2023-04-23T03:02:15.390Z,5
2023-04-23T03:03:16.661Z,4.5
2023-04-23T03:04:17.501Z,3.900000095
2023-04-23T03:05:19.318Z,4.599999905
2023-04-23T03:06:20.289Z,4.300000191
2023-04-23T03:07:21.777Z,5.199999809
2023-04-23T03:08:22.727Z,2.900000095
2023-04-23T03:09:24.264Z,5.800000191
2023-04-23T03:10:25.734Z,4.400000095
2023-04-23T03:11:27.376Z,4
2023-04-23T03:12:28.359Z,3.099999905
2023-04-23T03:13:30.252Z,3.400000095
2023-04-23T03:14:31.136Z,2.799999952
2023-04-23T03:15:32.932Z,2.5
2023-04-23T03:16:33.928Z,2.099999905
2023-04-23T03:17:36.006Z,3.400000095
2023-04-23T03:18:37.123Z,4.300000191
2023-04-23T03:20:08.736Z,2.900000095
2023-04-23T03:21:09.918Z,2.799999952
2023-04-23T03:22:11.820Z,4.900000095
2023-04-23T03:23:12.788Z,2.5
2023-04-23T03:24:14.347Z,2.799999952
2023-04-23T03:25:15.752Z,2.599999905
2023-04-23T03:26:16.736Z,4.900000095
2023-04-23T03:27:18.453Z,3.400000095
2023-04-23T03:28:19.632Z,6.5
2023-04-23T03:29:20.518Z,3.299999952
2023-04-23T03:30:21.450Z,2.900000095
2023-04-23T03:31:22.460Z,4.900000095
2023-04-23T03:32:24.458Z,2.900000095
2023-04-23T03:33:25.500Z,2.299999952
2023-04-23T03:34:26.341Z,2.700000048
2023-04-23T03:35:28.187Z,2
2023-04-23T03:36:29.083Z,3
2023-04-23T03:37:30.830Z,3.5
2023-04-23T03:38:31.756Z,3
2023-04-23T03:39:33.205Z,2.099999905
2023-04-23T03:40:34.775Z,2.900000095
2023-04-23T03:41:35.790Z,2.799999952
2023-04-23T03:43:08.671Z,3.599999905
2023-04-23T03:44:09.595Z,2.299999952
2023-04-23T03:45:11.267Z,4.199999809
2023-04-23T03:46:12.281Z,2.400000095
2023-04-23T03:47:13.852Z,1.899999976
2023-04-23T03:48:14.741Z,3.200000048
2023-04-23T03:49:16.224Z,4.800000191
2023-04-23T03:50:17.106Z,4.5
2023-04-23T03:51:17.954Z,2.400000095
2023-04-23T03:52:19.814Z,4.699999809
2023-04-23T03:53:20.785Z,1.899999976
2023-04-23T03:54:21.659Z,3.900000095
2023-04-23T03:55:23.309Z,2.099999905
2023-04-23T03:56:27.052Z,3
2023-04-23T03:57:26.860Z,3.200000048
2023-04-23T03:58:27.935Z,3.299999952
2023-04-23T03:59:28.939Z,2.799999952
2023-04-23T04:00:30.890Z,3.200000048
2023-04-23T04:01:31.878Z,2.299999952
2023-04-23T04:02:34.051Z,5.300000191
2023-04-23T04:03:35.012Z,2.599999905
2023-04-23T04:04:35.913Z,2.799999952
2023-04-23T04:06:08.175Z,4.5
2023-04-23T04:07:09.808Z,3
2023-04-23T04:08:10.812Z,2.200000048
2023-04-23T04:09:11.601Z,3.400000095
2023-04-23T04:10:13.672Z,3.200000048
2023-04-23T04:11:15.295Z,3.700000048
2023-04-23T04:12:17.410Z,4
2023-04-23T04:13:18.538Z,1.799999952
2023-04-23T04:14:20.455Z,4.300000191
2023-04-23T04:15:22.414Z,4.300000191
2023-04-23T04:16:23.511Z,4.199999809
2023-04-23T04:17:25.326Z,2.900000095
2023-04-23T04:18:26.487Z,3.400000095
2023-04-23T04:19:27.524Z,4.199999809
2023-04-23T04:20:29.268Z,3.099999905
2023-04-23T04:21:30.346Z,4.5
2023-04-23T04:22:32.386Z,4.099999905
2023-04-23T04:23:33.393Z,2.099999905
2023-04-23T04:24:34.547Z,3.299999952
2023-04-23T04:25:36.334Z,4.5
2023-04-23T04:27:08.893Z,3.700000048
2023-04-23T04:28:10.900Z,2.099999905
2023-04-23T04:29:12.016Z,2
2023-04-23T04:30:12.840Z,3.700000048
2023-04-23T04:31:14.077Z,2.400000095
2023-04-23T04:32:15.789Z,3.700000048
2023-04-23T04:33:16.934Z,2.700000048
2023-04-23T04:34:17.990Z,2.900000095
2023-04-23T04:35:19.744Z,2.599999905
2023-04-23T04:36:20.684Z,5.900000095
2023-04-23T04:37:22.385Z,3.400000095
2023-04-23T04:38:23.397Z,2.5
2023-04-23T04:39:25.268Z,5.400000095
2023-04-23T04:40:26.763Z,3.099999905
2023-04-23T04:41:27.742Z,3.400000095
2023-04-23T04:42:29.331Z,2.599999905
2023-04-23T04:43:30.308Z,3.299999952
2023-04-23T04:44:31.217Z,2.599999905
2023-04-23T04:45:32.888Z,2.299999952
2023-04-23T04:46:33.972Z,2.299999952
2023-04-23T04:47:35.825Z,5.199999809
2023-04-23T04:49:07.699Z,3.599999905
2023-04-23T04:50:08.634Z,2
2023-04-23T04:51:09.635Z,4.699999809
2023-04-23T04:52:11.298Z,3
2023-04-23T04:53:12.231Z,2.700000048
2023-04-23T04:54:13.522Z,5.199999809
2023-04-23T04:55:14.481Z,2.799999952
2023-04-23T04:56:16.370Z,4.099999905
2023-04-23T04:57:18.295Z,2
2023-04-23T04:58:19.301Z,3.799999952
2023-04-23T04:59:20.303Z,2.799999952
2023-04-23T05:00:21.245Z,3.900000095
2023-04-23T05:01:22.196Z,3.299999952
2023-04-23T05:02:23.953Z,3.900000095
2023-04-23T05:03:25.033Z,3.099999905
2023-04-23T05:04:26.758Z,3
2023-04-23T05:05:28.290Z,2.5
2023-04-23T05:06:29.227Z,5.400000095
2023-04-23T05:07:30.806Z,2.900000095
2023-04-23T05:08:31.962Z,3.700000048
2023-04-23T05:09:33.788Z,4.699999809
2023-04-23T05:10:35.297Z,3.599999905
2023-04-23T05:11:36.829Z,3.099999905
2023-04-23T05:13:09.533Z,3.599999905
2023-04-23T05:14:10.421Z,5.900000095
2023-04-23T05:15:11.338Z,3.299999952
2023-04-23T05:16:13.660Z,5.099999905
2023-04-23T05:17:14.619Z,4.300000191
2023-04-23T05:18:16.357Z,4.800000191
2023-04-23T05:19:17.530Z,3.599999905
2023-04-23T05:20:18.412Z,3.599999905
2023-04-23T05:21:19.623Z,6.300000191
2023-04-23T05:22:21.306Z,5.199999809
2023-04-23T05:23:22.387Z,4.699999809
2023-04-23T05:24:23.303Z,4.199999809
2023-04-23T05:25:24.141Z,3.299999952
2023-04-23T05:26:25.825Z,3.5
2023-04-23T05:27:27.831Z,2.5
2023-04-23T05:28:28.837Z,2.599999905
2023-04-23T05:29:30.500Z,3.799999952
2023-04-23T05:30:31.403Z,4.400000095
2023-04-23T05:31:32.443Z,3.5
2023-04-23T05:32:34.403Z,2.700000048
2023-04-23T05:33:46.207Z,4.199999809
2023-04-23T05:35:07.158Z,2.5
2023-04-23T05:36:08.822Z,2.599999905
2023-04-23T05:37:10.868Z,3.200000048
2023-04-23T05:38:12.814Z,2.5
2023-04-23T05:39:13.863Z,3.700000048
2023-04-23T05:40:15.717Z,4
2023-04-23T05:41:17.288Z,4.5
2023-04-23T05:42:18.272Z,2.299999952
2023-04-23T05:43:19.798Z,2.900000095
2023-04-23T05:44:20.764Z,3.599999905
2023-04-23T05:45:21.720Z,5.900000095
2023-04-23T05:46:23.325Z,3.700000048
2023-04-23T05:47:24.820Z,4.199999809
2023-04-23T05:48:25.724Z,3.900000095
2023-04-23T05:49:26.583Z,4.599999905
2023-04-23T05:50:27.390Z,4.400000095
2023-04-23T05:51:28.373Z,3.5
2023-04-23T05:52:30.290Z,4.599999905
2023-04-23T05:53:31.195Z,3.400000095
2023-04-23T05:54:32.727Z,4.099999905
2023-04-23T05:55:33.592Z,4.300000191
2023-04-23T05:56:35.397Z,3.900000095
2023-04-23T05:58:07.149Z,4.199999809
2023-04-23T05:59:08.841Z,4.099999905
2023-04-23T06:00:09.740Z,3.700000048
2023-04-23T06:01:10.617Z,3.799999952
2023-04-23T06:02:12.385Z,5.400000095
2023-04-23T06:03:13.987Z,5.099999905
2023-04-23T06:04:15.573Z,3.799999952
2023-04-23T06:05:16.381Z,3.400000095
2023-04-23T06:06:17.803Z,4.900000095
2023-04-23T06:07:19.867Z,5.5
2023-04-23T06:08:21.369Z,5.300000191
2023-04-23T06:09:22.726Z,3.900000095
2023-04-23T06:10:23.607Z,4.5
2023-04-23T06:11:25.286Z,4.300000191
2023-04-23T06:12:26.317Z,4.599999905
2023-04-23T06:13:28.341Z,2.799999952
2023-04-23T06:14:29.170Z,3
2023-04-23T06:15:30.109Z,3.099999905
2023-04-23T06:16:31.827Z,6
2023-04-23T06:17:33.401Z,3.700000048
2023-04-23T06:18:34.479Z,2.5
2023-04-23T06:20:06.800Z,3.299999952
2023-04-23T06:21:07.608Z,4.199999809
2023-04-23T06:22:08.630Z,2.400000095
2023-04-23T06:23:10.276Z,4.199999809
2023-04-23T06:24:11.420Z,2.5
2023-04-23T06:25:12.342Z,2.400000095
2023-04-23T06:26:14.349Z,5.300000191
2023-04-23T06:27:15.324Z,2.799999952
2023-04-23T06:28:16.412Z,4.599999905
2023-04-23T06:29:18.449Z,2.400000095
2023-04-23T06:30:19.341Z,3.200000048
2023-04-23T06:31:20.353Z,2.5
2023-04-23T06:32:22.280Z,3
2023-04-23T06:33:23.334Z,2.700000048
2023-04-23T06:34:25.372Z,2.599999905
2023-04-23T06:35:26.313Z,2.900000095
2023-04-23T06:36:27.328Z,2.700000048
2023-04-23T06:37:29.575Z,2.400000095
2023-04-23T06:38:29.448Z,2.299999952
2023-04-23T06:39:31.307Z,2.599999905
2023-04-23T06:40:32.538Z,4.199999809
2023-04-23T06:41:33.599Z,2.5
2023-04-23T06:42:35.784Z,3
2023-04-23T06:44:08.241Z,2.200000048
2023-04-23T06:45:09.825Z,2.799999952
2023-04-23T06:46:11.278Z,3.400000095
2023-04-23T06:47:12.472Z,3
2023-04-23T06:48:14.364Z,2.599999905
2023-04-23T06:49:15.244Z,3
2023-04-23T06:50:16.340Z,4.099999905
2023-04-23T06:51:17.343Z,4.300000191
2023-04-23T06:52:19.276Z,3.799999952
2023-04-23T06:53:20.232Z,2.599999905
2023-04-23T06:54:21.248Z,3.099999905
2023-04-23T06:55:22.169Z,4.300000191
2023-04-23T06:56:23.844Z,2.400000095
2023-04-23T06:57:24.897Z,4.199999809
2023-04-23T06:58:25.866Z,3.599999905
2023-04-23T06:59:27.729Z,3.5
2023-04-23T07:00:28.658Z,3.400000095
2023-04-23T07:01:29.646Z,2.700000048
2023-04-23T07:02:31.379Z,3.5
2023-04-23T07:03:32.440Z,2.599999905
2023-04-23T07:04:33.531Z,1.799999952
2023-04-23T07:05:34.222Z,1.799999952
2023-04-23T07:06:36.382Z,2.400000095
2023-04-23T07:08:08.797Z,1.899999976
2023-04-23T07:09:09.842Z,3.200000048
2023-04-23T07:10:11.746Z,2.299999952
2023-04-23T07:11:13.643Z,3.900000095
2023-04-23T07:12:15.298Z,3.900000095
2023-04-23T07:13:16.336Z,2.700000048
2023-04-23T07:14:17.365Z,3.200000048
2023-04-23T07:15:18.388Z,3.299999952
2023-04-23T07:16:21.944Z,5.599999905
2023-04-23T07:17:22.349Z,4.800000191
2023-04-23T07:18:23.289Z,4.199999809
2023-04-23T07:19:24.179Z,3.200000048
2023-04-23T07:20:25.016Z,2.200000048
2023-04-23T07:21:25.877Z,1.899999976
2023-04-23T07:22:28.791Z,2.400000095
2023-04-23T07:23:28.340Z,4
2023-04-23T07:24:29.241Z,3.200000048
2023-04-23T07:25:30.103Z,2.200000048
2023-04-23T07:26:31.875Z,2.299999952
2023-04-23T07:27:32.910Z,2
2023-04-23T07:28:34.837Z,3.099999905
2023-04-23T07:30:06.286Z,1.799999952
2023-04-23T07:31:07.170Z,2.900000095
2023-04-23T07:32:08.226Z,3.599999905
2023-04-23T07:33:09.852Z,3.599999905
2023-04-23T07:34:11.935Z,3
2023-04-23T07:35:12.795Z,3.400000095
2023-04-23T07:36:14.430Z,3.299999952
2023-04-23T07:37:15.853Z,3.099999905
2023-04-23T07:38:17.873Z,3.400000095
2023-04-23T07:39:18.892Z,4.400000095
2023-04-23T07:40:20.888Z,2.599999905
2023-04-23T07:41:22.821Z,3.599999905
2023-04-23T07:42:23.905Z,5.300000191
2023-04-23T07:43:25.826Z,3.799999952
2023-04-23T07:44:26.828Z,3.799999952
2023-04-23T07:45:27.753Z,2.200000048
2023-04-23T07:46:28.776Z,3
2023-04-23T07:47:30.323Z,3.799999952
2023-04-23T07:48:31.851Z,3
2023-04-23T07:49:32.871Z,4.800000191
2023-04-23T07:50:33.757Z,3.700000048
2023-04-23T07:51:35.202Z,2.400000095
2023-04-23T07:53:07.363Z,6.099999905
2023-04-23T07:54:08.363Z,3.599999905
2023-04-23T07:55:09.278Z,2.900000095
2023-04-23T07:56:10.196Z,3.5
2023-04-23T07:57:11.869Z,3.599999905
2023-04-23T07:58:13.942Z,2.700000048
2023-04-23T07:59:15.829Z,3.5
2023-04-23T08:00:16.775Z,2.200000048
2023-04-23T08:01:17.693Z,2.299999952
2023-04-23T08:02:19.332Z,5.599999905
2023-04-23T08:03:20.738Z,2.700000048
2023-04-23T08:04:22.589Z,4.599999905
2023-04-23T08:05:23.268Z,2.900000095
2023-04-23T08:06:24.086Z,3.5
2023-04-23T08:07:25.719Z,4.300000191
2023-04-23T08:08:27.272Z,3
2023-04-23T08:09:28.780Z,3.099999905
2023-04-23T08:10:29.771Z,5.5
2023-04-23T08:11:31.211Z,5
2023-04-23T08:12:32.711Z,5.5
2023-04-23T08:13:34.262Z,6.099999905
2023-04-23T08:15:05.604Z,5.300000191
2023-04-23T08:16:06.493Z,6.199999809
2023-04-23T08:17:07.792Z,7.099999905
2023-04-23T08:18:08.718Z,2.5
2023-04-23T08:19:10.285Z,2.900000095
2023-04-23T08:20:11.144Z,4
2023-04-23T08:21:12.072Z,3.200000048
2023-04-23T08:22:12.984Z,3.400000095
2023-04-23T08:23:14.696Z,3.900000095
2023-04-23T08:24:16.301Z,3.299999952
2023-04-23T08:25:17.162Z,2.799999952
2023-04-23T08:26:18.011Z,2.5
2023-04-23T08:27:19.827Z,2.5
2023-04-23T08:28:20.729Z,1.799999952
2023-04-23T08:29:21.703Z,3.200000048
2023-04-23T08:30:22.535Z,1.600000024
2023-04-23T08:31:26.879Z,3
2023-04-23T08:32:25.304Z,3.400000095
2023-04-23T08:33:26.368Z,1.799999952
2023-04-23T08:34:27.222Z,2.599999905
2023-04-23T08:35:28.129Z,3.099999905
2023-04-23T08:36:29.013Z,3.700000048
2023-04-23T08:37:31.699Z,2.200000048
2023-04-23T08:38:31.836Z,2.099999905
2023-04-23T08:39:33.336Z,3.099999905
2023-04-23T08:40:35.276Z,5.5
2023-04-23T08:42:06.710Z,3.299999952
2023-04-23T08:43:08.229Z,3.5
2023-04-23T08:44:09.162Z,2.099999905
2023-04-23T08:45:10.193Z,7.5
2023-04-23T08:46:11.095Z,6.5
2023-04-23T08:47:12.835Z,4.599999905
2023-04-23T08:48:13.883Z,4.400000095
2023-04-23T08:49:15.271Z,2.900000095
2023-04-23T08:50:16.176Z,3.5
2023-04-23T08:51:17.027Z,5
2023-04-23T08:52:18.675Z,4.599999905
2023-04-23T08:53:20.244Z,3.299999952
2023-04-23T08:54:21.158Z,2.200000048
2023-04-23T08:55:22.174Z,3.299999952
2023-04-23T08:56:22.857Z,3.5
2023-04-23T08:57:24.282Z,3.200000048
2023-04-23T08:58:25.806Z,1.5
2023-04-23T08:59:26.656Z,2.200000048
2023-04-23T09:00:27.601Z,1.600000024
2023-04-23T09:01:28.629Z,1.700000048
2023-04-23T09:02:30.367Z,4
2023-04-23T09:03:31.247Z,2.5
2023-04-23T09:04:32.088Z,4.400000095
2023-04-23T09:05:32.981Z,2.700000048
2023-04-23T09:07:05.776Z,2
2023-04-23T09:08:07.304Z,4.5
2023-04-23T09:09:08.201Z,2.299999952
2023-04-23T09:10:09.236Z,1.600000024
2023-04-23T09:11:10.902Z,3.5
2023-04-23T09:12:12.312Z,2.5
2023-04-23T09:13:13.880Z,2.900000095
2023-04-23T09:14:14.783Z,3.700000048
2023-04-23T09:15:16.207Z,3.700000048
2023-04-23T09:16:17.290Z,1.200000048
2023-04-23T09:17:18.800Z,2.099999905
2023-04-23T09:18:20.121Z,2.400000095
2023-04-23T09:19:21.047Z,2.299999952
2023-04-23T09:20:22.159Z,2.200000048
2023-04-23T09:21:23.765Z,2.299999952
2023-04-23T09:22:24.727Z,3.200000048
2023-04-23T09:23:25.909Z,2.900000095
2023-04-23T09:24:27.019Z,2.099999905
2023-04-23T09:25:28.739Z,1.399999976
2023-04-23T09:26:30.461Z,2.5
2023-04-23T09:27:32.347Z,1.899999976
2023-04-23T09:28:33.274Z,2.700000048
2023-04-23T09:30:04.848Z,2.099999905
2023-04-23T09:31:05.694Z,1.5
2023-04-23T09:32:06.725Z,1.100000024
2023-04-23T09:33:08.260Z,3.5
2023-04-23T09:34:09.056Z,3.599999905
2023-04-23T09:35:10.012Z,3.5
2023-04-23T09:36:10.917Z,5.300000191
2023-04-23T09:37:12.787Z,2.200000048
2023-04-23T09:38:14.359Z,1.799999952
2023-04-23T09:39:15.427Z,1.399999976
2023-04-23T09:40:17.222Z,1.899999976
2023-04-23T09:41:18.130Z,2.299999952
2023-04-23T09:42:19.907Z,2.400000095
2023-04-23T09:43:21.736Z,2.700000048
2023-04-23T09:44:22.902Z,1.200000048
2023-04-23T09:45:23.812Z,2.599999905
2023-04-23T09:46:24.669Z,4.5
2023-04-23T09:47:26.314Z,3.299999952
2023-04-23T09:48:27.832Z,4.300000191
2023-04-23T09:49:28.769Z,1.799999952
2023-04-23T09:50:30.249Z,2.900000095
2023-04-23T09:51:31.121Z,2.700000048
2023-04-23T09:52:32.773Z,2.099999905
2023-04-23T09:54:05.305Z,2.200000048
2023-04-23T09:55:06.210Z,3.900000095
2023-04-23T09:56:07.380Z,2.299999952
2023-04-23T09:57:08.311Z,2.299999952
2023-04-23T09:58:10.318Z,2.200000048
2023-04-23T09:59:11.253Z,5
2023-04-23T10:00:14.739Z,5.800000191
2023-04-23T10:01:13.776Z,3.700000048
2023-04-23T10:02:14.746Z,4
2023-04-23T10:03:16.640Z,4
2023-04-23T10:04:18.446Z,3.299999952
2023-04-23T10:05:23.477Z,3.400000095
2023-04-23T10:06:31.073Z,3.099999905
2023-04-23T10:07:21.283Z,3.200000048
2023-04-23T10:08:23.236Z,2.099999905
2023-04-23T10:09:24.162Z,2.700000048
2023-04-23T10:10:25.957Z,2.5
2023-04-23T10:11:27.781Z,1.799999952
2023-04-23T10:12:46.122Z,2.400000095
2023-04-23T10:13:31.434Z,2.700000048
2023-04-23T10:14:32.458Z,3.299999952
2023-04-23T10:16:17.982Z,1.899999976
2023-04-23T10:17:05.627Z,4.699999809
2023-04-23T10:18:07.716Z,2.599999905
2023-04-23T10:19:09.357Z,2.099999905
2023-04-23T10:20:10.318Z,3.5
2023-04-23T10:21:11.258Z,2.599999905
2023-04-23T10:22:19.638Z,3.700000048
2023-04-23T10:23:13.846Z,2.400000095
2023-04-23T10:24:14.831Z,2.400000095
2023-04-23T10:25:15.830Z,4.900000095
2023-04-23T10:26:16.909Z,2.900000095
2023-04-23T10:27:30.699Z,2.700000048
2023-04-23T10:28:19.787Z,1.899999976
2023-04-23T10:29:21.284Z,2.900000095
2023-04-23T10:30:22.300Z,3
2023-04-23T10:31:23.612Z,2.5
2023-04-23T10:32:25.379Z,2.5
2023-04-23T10:33:30.662Z,3.599999905
2023-04-23T10:34:27.279Z,4.199999809
2023-04-23T10:35:28.189Z,2.799999952
2023-04-23T10:36:29.259Z,2.700000048
2023-04-23T10:37:30.816Z,4.199999809
2023-04-23T10:38:33.473Z,2.599999905
2023-04-23T10:40:05.847Z,2.900000095
2023-04-23T10:41:08.322Z,3.5
2023-04-23T10:42:09.320Z,2.400000095
2023-04-23T10:43:10.972Z,2.299999952
2023-04-23T10:44:12.175Z,1.600000024
2023-04-23T10:45:23.147Z,3.099999905
2023-04-23T10:46:14.381Z,3.099999905
2023-04-23T10:47:15.247Z,2.799999952
2023-04-23T10:48:16.830Z,3.400000095
2023-04-23T10:49:18.289Z,3
2023-04-23T10:50:24.224Z,3.400000095
2023-04-23T10:52:10.243Z,3.299999952
2023-04-23T10:52:26.848Z,2.200000048
2023-04-23T10:53:29.098Z,2.700000048
2023-04-23T10:54:31.098Z,2.5
2023-04-23T10:55:32.146Z,3.299999952
2023-04-23T10:56:33.634Z,4
2023-04-23T10:58:06.875Z,3
2023-04-23T10:59:07.867Z,1.799999952
2023-04-23T11:00:08.984Z,3.5
2023-04-23T11:01:10.040Z,1.399999976
2023-04-23T11:02:11.210Z,2.400000095
2023-04-23T11:03:13.073Z,3.799999952
2023-04-23T11:04:15.881Z,3.299999952
2023-04-23T11:05:19.566Z,2.400000095
2023-04-23T11:06:23.222Z,1.600000024
2023-04-23T11:07:27.762Z,1.700000048
2023-04-23T11:08:32.362Z,3.400000095
2023-04-23T11:10:08.943Z,3.599999905
2023-04-23T11:11:14.259Z,3.400000095
2023-04-23T11:12:18.740Z,3.200000048
2023-04-23T11:13:22.887Z,3.200000048
2023-04-23T11:14:27.220Z,2.900000095
2023-04-23T11:15:31.540Z,2.5
2023-04-23T11:16:35.389Z,3.900000095
2023-04-23T11:18:09.436Z,2.299999952
2023-04-23T11:19:11.561Z,4.199999809
2023-04-23T11:20:14.018Z,2.900000095
2023-04-23T11:21:14.878Z,3.299999952
2023-04-23T11:22:15.984Z,3
2023-04-23T11:23:17.914Z,2
2023-04-23T11:24:19.889Z,2.299999952
2023-04-23T11:25:20.872Z,4
2023-04-23T11:26:22.317Z,5.800000191
2023-04-23T11:27:23.409Z,4.400000095
2023-04-23T11:28:25.455Z,2.200000048
2023-04-23T11:29:27.387Z,3.700000048
2023-04-23T11:30:29.330Z,2.5
2023-04-23T11:31:30.164Z,2.799999952
2023-04-23T11:32:31.887Z,3
2023-04-23T11:33:32.899Z,5.099999905
2023-04-23T11:34:34.304Z,3.599999905
2023-04-23T11:36:05.661Z,4.599999905
2023-04-23T11:37:06.543Z,3.299999952
2023-04-23T11:38:08.291Z,3.400000095
2023-04-23T11:39:09.985Z,3.799999952
2023-04-23T11:40:11.804Z,4.5
2023-04-23T11:41:12.640Z,3.900000095
2023-04-23T11:42:14.392Z,2.799999952
2023-04-23T11:43:16.402Z,2.799999952
2023-04-23T11:44:17.395Z,4.199999809
2023-04-23T11:45:19.234Z,2.200000048
2023-04-23T11:46:20.196Z,4.5
2023-04-23T11:47:21.178Z,3.400000095
2023-04-23T11:48:23.541Z,4.5
2023-04-23T11:49:24.604Z,3.700000048
2023-04-23T11:50:25.482Z,2.900000095
2023-04-23T11:51:26.413Z,4.400000095
2023-04-23T11:52:27.403Z,4.400000095
2023-04-23T11:53:29.330Z,5.900000095